Time;durP1;ratioP1;P1;durP2;ratioP2;P2;SDS_P1;SDS_P2;PMS_P1;PMS_P2;Temp;Humidity;BMP_temperature;BMP_pressure;BME280_temperature;BME280_humidity;BME280_pressure;Samples;Min_cycle;Max_cycle;Signal;HPM_P1;HPM_P2
2023/07/19 00:01:29;;;;;;;4.55;2.33;;;;;;;-143.49;100.00;65027.28;5078613;28;20131;-73
2023/07/19 00:03:54;;;;;;;5.65;2.05;;;;;;;-143.49;100.00;65027.28;5096946;28;20059;-73
2023/07/19 00:06:20;;;;;;;5.10;2.05;;;;;;;-143.49;100.00;65027.28;5096924;28;20027;-73
2023/07/19 00:08:45;;;;;;;6.35;2.10;;;;;;;-143.49;100.00;65027.28;5096595;28;20044;-73
2023/07/19 00:11:10;;;;;;;5.03;2.20;;;;;;;-143.49;100.00;65027.28;5096728;28;20077;-74
2023/07/19 00:13:36;;;;;;;3.95;2.00;;;;;;;-143.49;100.00;65027.28;5096641;28;20035;-74
2023/07/19 00:16:01;;;;;;;6.43;2.08;;;;;;;-143.49;100.00;65027.28;5080034;28;20372;-73
2023/07/19 00:18:26;;;;;;;4.80;1.98;;;;;;;-143.49;100.00;65027.28;5098509;28;20502;-73
2023/07/19 00:20:52;;;;;;;5.80;2.20;;;;;;;-143.49;100.00;65027.28;5097694;28;20050;-73
2023/07/19 00:23:17;;;;;;;7.00;2.08;;;;;;;-143.49;100.00;65027.28;5097914;28;20028;-75
2023/07/19 00:25:43;;;;;;;5.03;2.17;;;;;;;-143.49;100.00;65027.28;5079831;28;20027;-73
2023/07/19 00:28:08;;;;;;;3.53;2.10;;;;;;;-143.49;100.00;65027.28;5079963;28;20028;-73
2023/07/19 00:30:33;;;;;;;7.63;2.20;;;;;;;-143.49;100.00;65027.28;5096893;28;20020;-74
2023/07/19 00:32:59;;;;;;;5.72;1.90;;;;;;;-143.49;100.00;65027.28;5096717;28;20024;-74
2023/07/19 00:35:24;;;;;;;7.97;2.20;;;;;;;-143.49;100.00;65027.28;5096701;28;20391;-73
2023/07/19 00:37:49;;;;;;;5.30;2.08;;;;;;;-143.49;100.00;65027.28;5096983;28;20031;-73
2023/07/19 00:40:15;;;;;;;5.47;2.30;;;;;;;-143.49;100.00;65027.28;5095855;28;20028;-74
2023/07/19 00:42:40;;;;;;;5.18;2.08;;;;;;;-143.49;100.00;65027.28;5095916;28;20036;-74
2023/07/19 00:45:06;;;;;;;5.38;2.30;;;;;;;-143.49;100.00;65027.28;5096104;28;20028;-73
2023/07/19 00:47:33;;;;;;;7.45;2.10;;;;;;;-143.49;100.00;65027.28;5077628;28;20020;-74
2023/07/19 00:49:59;;;;;;;3.90;2.00;;;;;;;-143.49;100.00;65027.28;5096203;28;20065;-74
2023/07/19 00:52:25;;;;;;;8.13;2.65;;;;;;;-143.49;100.00;65027.28;5095877;28;20048;-73
2023/07/19 00:54:50;;;;;;;7.15;2.42;;;;;;;-143.49;100.00;65027.28;5077598;28;20031;-73
2023/07/19 00:57:16;;;;;;;6.40;2.40;;;;;;;-143.49;100.00;65027.28;5077652;28;20518;-74
2023/07/19 00:59:41;;;;;;;12.10;2.40;;;;;;;-143.49;100.00;65027.28;5077708;28;20020;-73
2023/07/19 01:02:07;;;;;;;6.35;2.20;;;;;;;-143.49;100.00;65027.28;5095599;28;20032;-73
2023/07/19 01:04:34;;;;;;;4.78;2.00;;;;;;;-143.49;100.00;65027.28;5095657;28;20034;-73
2023/07/19 01:07:02;;;;;;;3.95;1.95;;;;;;;-143.49;100.00;65027.28;5077503;28;20080;-73
2023/07/19 01:09:28;;;;;;;8.32;2.22;;;;;;;-143.49;100.00;65027.28;5095379;28;20051;-73
2023/07/19 01:11:53;;;;;;;4.88;2.13;;;;;;;-143.49;100.00;65027.28;5094590;28;20020;-74
2023/07/19 01:14:18;;;;;;;4.95;2.00;;;;;;;-143.49;100.00;65027.28;5095599;28;20112;-74
2023/07/19 01:16:44;;;;;;;8.10;2.40;;;;;;;-143.49;100.00;65027.28;5095509;28;20056;-74
2023/07/19 01:19:10;;;;;;;4.75;2.10;;;;;;;-143.49;100.00;65027.28;5095908;28;20043;-73
2023/07/19 01:21:35;;;;;;;5.80;2.13;;;;;;;-143.49;100.00;65027.28;5096302;28;20093;-74
2023/07/19 01:24:00;;;;;;;6.10;2.40;;;;;;;-143.49;100.00;65027.28;5095898;28;20020;-73
2023/07/19 01:26:26;;;;;;;5.43;2.03;;;;;;;-143.49;100.00;65027.28;5095857;28;20016;-74
2023/07/19 01:28:51;;;;;;;9.02;2.33;;;;;;;-143.49;100.00;65027.28;5096195;28;20039;-73
2023/07/19 01:31:16;;;;;;;4.82;2.30;;;;;;;-143.49;100.00;65027.28;5105032;28;20024;-72
2023/07/19 01:33:42;;;;;;;7.50;2.65;;;;;;;-143.49;100.00;65027.28;5106213;28;20051;-73
2023/07/19 01:36:07;;;;;;;7.97;2.53;;;;;;;-143.49;100.00;65027.28;5108024;28;20414;-73
2023/07/19 01:38:34;;;;;;;4.00;2.28;;;;;;;-143.49;100.00;65027.28;5107404;28;20032;-72
2023/07/19 01:41:00;;;;;;;3.75;2.30;;;;;;;-143.49;100.00;65027.28;5107372;28;20390;-72
2023/07/19 01:43:25;;;;;;;6.05;2.55;;;;;;;-143.49;100.00;65027.28;5106695;28;20059;-72
2023/07/19 01:45:50;;;;;;;5.35;2.50;;;;;;;-143.49;100.00;65027.28;5106718;28;20027;-73
2023/07/19 01:48:16;;;;;;;6.57;2.33;;;;;;;-143.49;100.00;65027.28;5107774;28;20040;-73
2023/07/19 01:50:46;;;;;;;3.38;2.38;;;;;;;-143.49;100.00;65027.28;5089720;28;20032;-73
2023/07/19 01:53:11;;;;;;;5.20;2.60;;;;;;;-143.49;100.00;65027.28;5107434;28;20020;-73
2023/07/19 01:55:36;;;;;;;6.28;2.42;;;;;;;-143.49;100.00;65027.28;5107851;28;20028;-72
2023/07/19 01:58:02;;;;;;;7.60;2.80;;;;;;;-143.49;100.00;65027.28;5105622;28;20027;-73
2023/07/19 02:00:27;;;;;;;7.38;2.60;;;;;;;-143.49;100.00;65027.28;5098944;28;20045;-74
2023/07/19 02:02:52;;;;;;;9.88;2.67;;;;;;;-143.49;100.00;65027.28;5095227;28;20133;-73
2023/07/19 02:05:17;;;;;;;6.82;2.83;;;;;;;-143.49;100.00;65027.28;5099119;28;20020;-73
2023/07/19 02:07:44;;;;;;;10.55;3.20;;;;;;;-143.49;100.00;65027.28;5085117;28;20040;-73
2023/07/19 02:10:10;;;;;;;5.95;2.92;;;;;;;-143.49;100.00;65027.28;5086984;28;20023;-72
2023/07/19 02:12:36;;;;;;;9.52;3.20;;;;;;;-143.49;100.00;65027.28;5103992;28;20028;-74
2023/07/19 02:15:01;;;;;;;7.18;3.30;;;;;;;-143.49;100.00;65027.28;5104957;28;20030;-73
2023/07/19 02:17:27;;;;;;;8.52;3.17;;;;;;;-143.49;100.00;65027.28;5105322;28;20451;-73
2023/07/19 02:19:52;;;;;;;8.40;3.17;;;;;;;-143.49;100.00;65027.28;5086448;28;20023;-72
2023/07/19 02:22:17;;;;;;;8.38;3.17;;;;;;;-143.49;100.00;65027.28;5102761;28;20039;-72
2023/07/19 02:24:43;;;;;;;10.38;3.20;;;;;;;-143.49;100.00;65027.28;5078746;28;20023;-73
2023/07/19 02:27:08;;;;;;;6.50;3.20;;;;;;;-143.49;100.00;65027.28;5096179;28;20103;-73
2023/07/19 02:29:33;;;;;;;9.45;3.15;;;;;;;-143.49;100.00;65027.28;5096664;28;20169;-73
2023/07/19 02:31:59;;;;;;;8.85;2.75;;;;;;;-143.49;100.00;65027.28;5096358;28;20066;-73
2023/07/19 02:34:24;;;;;;;17.33;3.60;;;;;;;-143.49;100.00;65027.28;5096211;28;20051;-73
2023/07/19 02:36:50;;;;;;;12.40;3.30;;;;;;;-143.49;100.00;65027.28;5095032;28;20026;-72
2023/07/19 02:39:15;;;;;;;8.10;3.72;;;;;;;-143.49;100.00;65027.28;5094644;28;20023;-72
2023/07/19 02:41:41;;;;;;;9.32;3.42;;;;;;;-143.49;100.00;65027.28;5076125;28;20115;-74
2023/07/19 02:44:06;;;;;;;6.55;3.78;;;;;;;-143.49;100.00;65027.28;5080287;28;20531;-74
2023/07/19 02:46:31;;;;;;;9.18;3.75;;;;;;;-143.49;100.00;65027.28;5094442;28;20365;-74
2023/07/19 02:48:57;;;;;;;7.15;3.60;;;;;;;-143.49;100.00;65027.28;5093526;28;20054;-74
2023/07/19 02:51:22;;;;;;;12.38;3.58;;;;;;;-143.49;100.00;65027.28;5093628;28;20093;-75
2023/07/19 02:53:48;;;;;;;7.13;3.55;;;;;;;-143.49;100.00;65027.28;5075259;28;20502;-73
2023/07/19 02:56:13;;;;;;;12.82;3.83;;;;;;;-143.49;100.00;65027.28;5075554;28;20544;-73
2023/07/19 02:58:39;;;;;;;7.53;3.70;;;;;;;-143.49;100.00;65027.28;5093647;28;20115;-73
2023/07/19 03:01:04;;;;;;;7.32;3.60;;;;;;;-143.49;100.00;65027.28;5075138;28;20034;-73
2023/07/19 03:03:30;;;;;;;10.88;3.88;;;;;;;-143.49;100.00;65027.28;5093514;28;20028;-72
2023/07/19 03:05:55;;;;;;;8.85;3.80;;;;;;;-143.49;100.00;65027.28;5093152;28;20479;-73
2023/07/19 03:08:20;;;;;;;6.93;3.47;;;;;;;-143.49;100.00;65027.28;5093131;28;20499;-73
2023/07/19 03:10:51;;;;;;;7.30;3.67;;;;;;;-143.49;100.00;65027.28;5093261;28;20032;-74
2023/07/19 03:13:16;;;;;;;10.13;4.47;;;;;;;-143.49;100.00;65027.28;5093247;28;20028;-74
2023/07/19 03:15:46;;;;;;;5.65;3.70;;;;;;;-143.49;100.00;65027.28;5075058;28;20559;-73
2023/07/19 03:18:11;;;;;;;7.22;3.60;;;;;;;-143.49;100.00;65027.28;5093304;28;20070;-73
2023/07/19 03:20:36;;;;;;;6.97;3.85;;;;;;;-143.49;100.00;65027.28;5074911;28;20016;-74
2023/07/19 03:23:02;;;;;;;8.45;3.90;;;;;;;-143.49;100.00;65027.28;5093060;28;20016;-73
2023/07/19 03:25:28;;;;;;;7.78;4.00;;;;;;;-143.49;100.00;65027.28;5093139;28;20020;-73
2023/07/19 03:27:54;;;;;;;8.90;4.10;;;;;;;-143.49;100.00;65027.28;5075163;28;20024;-73
2023/07/19 03:30:20;;;;;;;8.40;4.32;;;;;;;-143.49;100.00;65027.28;5093119;28;20468;-73
2023/07/19 03:32:46;;;;;;;7.97;4.30;;;;;;;-143.49;100.00;65027.28;5093310;28;20019;-73
2023/07/19 03:35:11;;;;;;;10.82;3.75;;;;;;;-143.49;100.00;65027.28;5095474;28;20020;-73
2023/07/19 03:37:36;;;;;;;7.30;3.88;;;;;;;-143.49;100.00;65027.28;5078941;28;20387;-73
2023/07/19 03:40:04;;;;;;;12.35;4.10;;;;;;;-143.49;100.00;65027.28;5097187;28;20028;-72
2023/07/19 03:42:29;;;;;;;7.97;3.92;;;;;;;-143.49;100.00;65027.28;5078986;28;20024;-73
2023/07/19 03:44:54;;;;;;;8.48;4.20;;;;;;;-143.49;100.00;65027.28;5097171;28;20031;-73
2023/07/19 03:47:20;;;;;;;7.65;3.67;;;;;;;-143.49;100.00;65027.28;5097027;28;20069;-73
2023/07/19 03:49:45;;;;;;;7.07;3.83;;;;;;;-143.49;100.00;65027.28;5096847;28;20097;-74
2023/07/19 03:52:11;;;;;;;5.60;3.50;;;;;;;-143.49;100.00;65027.28;5096886;28;20024;-73
2023/07/19 03:54:36;;;;;;;7.95;3.40;;;;;;;-143.49;100.00;65027.28;5078647;28;20028;-73
2023/07/19 03:57:01;;;;;;;7.03;3.38;;;;;;;-143.49;100.00;65027.28;5096590;28;20062;-73
2023/07/19 03:59:29;;;;;;;7.70;3.35;;;;;;;-143.49;100.00;65027.28;5096709;28;20020;-72
2023/07/19 04:01:54;;;;;;;7.95;3.67;;;;;;;-143.49;100.00;65027.28;5096820;28;20046;-72
2023/07/19 04:04:20;;;;;;;6.47;3.20;;;;;;;-143.49;100.00;65027.28;5078367;28;20059;-73
2023/07/19 04:06:45;;;;;;;10.73;3.80;;;;;;;-143.49;100.00;65027.28;5096902;28;20035;-73
2023/07/19 04:09:10;;;;;;;5.80;3.30;;;;;;;-143.49;100.00;65027.28;5096213;28;20044;-73
2023/07/19 04:11:35;;;;;;;8.60;3.72;;;;;;;-143.49;100.00;65027.28;5096347;28;20028;-73
2023/07/19 04:14:01;;;;;;;13.27;3.60;;;;;;;-143.49;100.00;65027.28;5078190;28;20016;-75
2023/07/19 04:16:26;;;;;;;6.70;3.50;;;;;;;-143.49;100.00;65027.28;5078249;28;20024;-73
2023/07/19 04:18:52;;;;;;;6.03;3.60;;;;;;;-143.49;100.00;65027.28;5096225;28;20102;-74
2023/07/19 04:21:17;;;;;;;7.43;3.70;;;;;;;-143.49;100.00;65027.28;5078051;28;20077;-73
2023/07/19 04:23:43;;;;;;;10.00;3.90;;;;;;;-143.49;100.00;65027.28;5096352;28;20038;-73
2023/07/19 04:26:08;;;;;;;10.93;3.50;;;;;;;-143.49;100.00;65027.28;5096044;28;20016;-73
2023/07/19 04:28:33;;;;;;;5.68;3.55;;;;;;;-143.49;100.00;65027.28;5096113;28;20390;-73
2023/07/19 04:30:59;;;;;;;8.57;4.05;;;;;;;-143.49;100.00;65027.28;5095943;28;20532;-73
2023/07/19 04:33:24;;;;;;;8.13;3.80;;;;;;;-143.49;100.00;65027.28;5095933;28;20024;-73
2023/07/19 04:35:50;;;;;;;9.07;3.78;;;;;;;-143.49;100.00;65027.28;5078358;28;20032;-73
2023/07/19 04:38:16;;;;;;;9.60;3.90;;;;;;;-143.49;100.00;65027.28;5077793;28;20020;-74
2023/07/19 04:40:41;;;;;;;9.77;3.90;;;;;;;-143.49;100.00;65027.28;5095834;28;20103;-73
2023/07/19 04:43:06;;;;;;;12.05;4.00;;;;;;;-143.49;100.00;65027.28;5095738;28;20016;-73
2023/07/19 04:45:32;;;;;;;7.80;4.00;;;;;;;-143.49;100.00;65027.28;5077369;28;20106;-74
2023/07/19 04:47:57;;;;;;;12.63;3.70;;;;;;;-143.49;100.00;65027.28;5077482;28;20056;-74
2023/07/19 04:50:24;;;;;;;8.23;3.50;;;;;;;-143.49;100.00;65027.28;5095603;28;20436;-73
2023/07/19 04:52:50;;;;;;;8.63;3.58;;;;;;;-143.49;100.00;65027.28;5095583;28;20024;-73
2023/07/19 04:55:15;;;;;;;7.25;3.67;;;;;;;-143.49;100.00;65027.28;5077399;28;20383;-73
2023/07/19 04:57:41;;;;;;;11.15;4.15;;;;;;;-143.49;100.00;65027.28;5095502;28;20024;-74
2023/07/19 05:00:11;;;;;;;10.63;4.07;;;;;;;-143.49;100.00;65027.28;5095358;28;20020;-74
2023/07/19 05:02:38;;;;;;;10.38;3.85;;;;;;;-143.49;100.00;65027.28;5095334;28;20024;-73
2023/07/19 05:05:04;;;;;;;10.65;3.70;;;;;;;-143.49;100.00;65027.28;5095328;28;20028;-73
2023/07/19 05:07:30;;;;;;;10.18;3.60;;;;;;;-143.49;100.00;65027.28;5095053;28;20052;-74
2023/07/19 05:09:55;;;;;;;6.32;3.22;;;;;;;-143.49;100.00;65027.28;5095157;28;20020;-73
2023/07/19 05:12:20;;;;;;;9.15;3.55;;;;;;;-143.49;100.00;65027.28;5095203;28;20089;-73
2023/07/19 05:14:46;;;;;;;8.23;3.53;;;;;;;-143.49;100.00;65027.28;5095112;28;20339;-74
2023/07/19 05:17:11;;;;;;;7.80;3.35;;;;;;;-143.49;100.00;65027.28;5077024;28;20035;-73
2023/07/19 05:19:36;;;;;;;8.15;2.70;;;;;;;-143.49;100.00;65027.28;5095126;28;20024;-73
2023/07/19 05:22:02;;;;;;;5.40;2.70;;;;;;;-143.49;100.00;65027.28;5095014;28;20062;-75
2023/07/19 05:24:27;;;;;;;7.40;2.70;;;;;;;-143.49;100.00;65027.28;5094908;28;20115;-73
2023/07/19 05:26:52;;;;;;;6.13;2.58;;;;;;;-143.49;100.00;65027.28;5076791;28;20089;-73
2023/07/19 05:29:18;;;;;;;6.85;2.80;;;;;;;-143.49;100.00;65027.28;5094938;28;20058;-73
2023/07/19 05:31:43;;;;;;;10.23;3.00;;;;;;;-143.49;100.00;65027.28;5095146;28;20352;-75
2023/07/19 05:34:08;;;;;;;5.40;2.70;;;;;;;-143.49;100.00;65027.28;5076908;28;20031;-73
2023/07/19 05:36:34;;;;;;;7.15;2.88;;;;;;;-143.49;100.00;65027.28;5094625;28;20028;-73
2023/07/19 05:39:01;;;;;;;9.45;2.90;;;;;;;-143.49;100.00;65027.28;5094649;28;20027;-74
2023/07/19 05:41:27;;;;;;;8.88;2.72;;;;;;;-143.49;100.00;65027.28;5076534;28;20035;-74
2023/07/19 05:43:53;;;;;;;6.25;2.80;;;;;;;-143.49;100.00;65027.28;5076473;28;20035;-74
2023/07/19 05:46:18;;;;;;;6.25;2.63;;;;;;;-143.49;100.00;65027.28;5094599;28;20016;-74
2023/07/19 05:48:43;;;;;;;6.68;2.70;;;;;;;-143.49;100.00;65027.28;5094704;28;20391;-74
2023/07/19 05:51:09;;;;;;;6.00;2.55;;;;;;;-143.49;100.00;65027.28;5094444;28;20028;-74
2023/07/19 05:53:34;;;;;;;6.13;2.50;;;;;;;-143.49;100.00;65027.28;5094744;28;20023;-74
2023/07/19 05:56:00;;;;;;;7.10;2.80;;;;;;;-143.49;100.00;65027.28;5094495;28;20068;-73
2023/07/19 05:58:27;;;;;;;5.95;2.88;;;;;;;-143.49;100.00;65027.28;5093773;28;20028;-73
2023/07/19 06:00:52;;;;;;;4.93;2.20;;;;;;;-143.49;100.00;65027.28;5076118;28;20106;-75
2023/07/19 06:03:18;;;;;;;5.75;2.30;;;;;;;-143.49;100.00;65027.28;5094977;28;20510;-74
2023/07/19 06:05:44;;;;;;;5.45;2.47;;;;;;;-143.49;100.00;65027.28;5094192;28;20391;-74
2023/07/19 06:08:11;;;;;;;8.77;3.30;;;;;;;-143.49;100.00;65027.28;5093993;28;20456;-73
2023/07/19 06:10:36;;;;;;;5.53;2.10;;;;;;;-143.49;100.00;65027.28;5094208;28;20051;-73
2023/07/19 06:13:03;;;;;;;6.97;2.67;;;;;;;-143.49;100.00;65027.28;5094164;28;20020;-73
2023/07/19 06:15:29;;;;;;;5.40;2.05;;;;;;;-143.49;100.00;65027.28;5075991;28;20467;-73
2023/07/19 06:17:54;;;;;;;10.05;2.42;;;;;;;-143.49;100.00;65027.28;5093677;28;20072;-73
2023/07/19 06:20:19;;;;;;;4.60;2.00;;;;;;;-143.49;100.00;65027.28;5093424;28;20111;-73
2023/07/19 06:22:45;;;;;;;3.92;1.73;;;;;;;-143.49;100.00;65027.28;5074827;28;20031;-73
2023/07/19 06:25:11;;;;;;;5.20;2.15;;;;;;;-143.49;100.00;65027.28;5093030;28;20024;-73
2023/07/19 06:27:37;;;;;;;5.78;1.80;;;;;;;-143.49;100.00;65027.28;5092870;28;20028;-73
2023/07/19 06:30:02;;;;;;;6.10;2.20;;;;;;;-143.49;100.00;65027.28;5092830;28;20110;-73
2023/07/19 06:32:28;;;;;;;4.70;2.20;;;;;;;-143.49;100.00;65027.28;5092977;28;20023;-73
2023/07/19 06:34:57;;;;;;;8.15;2.38;;;;;;;-143.49;100.00;65027.28;5093329;28;20056;-73
2023/07/19 06:37:23;;;;;;;7.13;2.17;;;;;;;-143.49;100.00;65027.28;5089524;28;20115;-74
2023/07/19 06:39:48;;;;;;;6.50;1.88;;;;;;;-143.49;100.00;65027.28;5093698;28;20032;-73
2023/07/19 06:42:13;;;;;;;4.32;1.85;;;;;;;-143.49;100.00;65027.28;5093608;28;20023;-73
2023/07/19 06:44:39;;;;;;;7.28;1.70;;;;;;;-143.49;100.00;65027.28;5093422;28;20073;-74
2023/07/19 06:47:04;;;;;;;4.80;1.58;;;;;;;-143.49;100.00;65027.28;5093453;28;20012;-73
2023/07/19 06:49:30;;;;;;;3.45;1.60;;;;;;;-143.49;100.00;65027.28;5093377;28;20026;-74
2023/07/19 06:51:55;;;;;;;3.38;1.83;;;;;;;-143.49;100.00;65027.28;5093506;28;20028;-74
2023/07/19 06:54:20;;;;;;;5.65;1.90;;;;;;;-143.49;100.00;65027.28;5093124;28;20028;-73
2023/07/19 06:56:46;;;;;;;3.95;1.60;;;;;;;-143.49;100.00;65027.28;5092023;28;20031;-73
2023/07/19 06:59:11;;;;;;;4.93;1.52;;;;;;;-143.49;100.00;65027.28;5093371;28;20042;-74
2023/07/19 07:01:36;;;;;;;7.13;1.83;;;;;;;-143.49;100.00;65027.28;5093491;28;20035;-74
2023/07/19 07:04:02;;;;;;;4.32;1.90;;;;;;;-143.49;100.00;65027.28;5093234;28;20035;-74
2023/07/19 07:06:27;;;;;;;3.33;1.65;;;;;;;-143.49;100.00;65027.28;5093310;28;20463;-74
2023/07/19 07:08:52;;;;;;;6.13;1.95;;;;;;;-143.49;100.00;65027.28;5092368;28;20462;-74
2023/07/19 07:11:18;;;;;;;5.47;2.00;;;;;;;-143.49;100.00;65027.28;5093091;28;20097;-74
2023/07/19 07:13:43;;;;;;;4.22;1.80;;;;;;;-143.49;100.00;65027.28;5093112;28;20360;-74
2023/07/19 07:16:09;;;;;;;3.42;1.77;;;;;;;-143.49;100.00;65027.28;5093325;28;20020;-74
2023/07/19 07:18:35;;;;;;;6.47;1.70;;;;;;;-143.49;100.00;65027.28;5093278;28;20028;-74
2023/07/19 07:21:00;;;;;;;4.75;1.60;;;;;;;-143.49;100.00;65027.28;5093209;28;20073;-74
2023/07/19 07:23:26;;;;;;;5.07;1.73;;;;;;;-143.49;100.00;65027.28;5093174;28;20077;-75
2023/07/19 07:25:53;;;;;;;3.35;1.58;;;;;;;-143.49;100.00;65027.28;5075020;28;20020;-74
2023/07/19 07:28:19;;;;;;;4.65;1.60;;;;;;;-143.49;100.00;65027.28;5093050;28;20024;-73
2023/07/19 07:30:44;;;;;;;5.20;1.80;;;;;;;-143.49;100.00;65027.28;5075009;28;20076;-74
2023/07/19 07:33:09;;;;;;;5.40;1.75;;;;;;;-143.49;100.00;65027.28;5093006;28;20527;-74
2023/07/19 07:35:35;;;;;;;6.10;1.70;;;;;;;-143.49;100.00;65027.28;5093018;28;20027;-75
2023/07/19 07:38:00;;;;;;;5.38;1.48;;;;;;;-143.49;100.00;65027.28;5075277;28;20023;-75
2023/07/19 07:40:25;;;;;;;4.25;1.50;;;;;;;-143.49;100.00;65027.28;5092790;28;20222;-76
2023/07/19 07:42:51;;;;;;;6.35;1.70;;;;;;;-143.49;100.00;65027.28;5093083;28;20073;-74
2023/07/19 07:45:17;;;;;;;4.63;1.50;;;;;;;-143.49;100.00;65027.28;5074776;28;20461;-75
2023/07/19 07:47:43;;;;;;;3.75;1.52;;;;;;;-143.49;100.00;65027.28;5074721;28;20028;-74
2023/07/19 07:50:09;;;;;;;4.25;1.52;;;;;;;-143.49;100.00;65027.28;5092986;28;20038;-74
2023/07/19 07:52:37;;;;;;;8.25;2.20;;;;;;;-143.49;100.00;65027.28;5092894;28;20024;-75
2023/07/19 07:55:05;;;;;;;3.53;1.50;;;;;;;-143.49;100.00;65027.28;5092671;28;20024;-75
2023/07/19 07:57:33;;;;;;;7.18;1.85;;;;;;;-143.49;100.00;65027.28;5092485;28;20024;-74
2023/07/19 07:59:58;;;;;;;5.70;1.85;;;;;;;-143.49;100.00;65027.28;5092663;28;20024;-75
2023/07/19 08:02:24;;;;;;;9.18;2.33;;;;;;;-143.49;100.00;65027.28;5092762;28;20067;-76
2023/07/19 08:04:51;;;;;;;5.55;1.60;;;;;;;-143.49;100.00;65027.28;5092577;28;20053;-75
2023/07/19 08:07:17;;;;;;;5.53;1.70;;;;;;;-143.49;100.00;65027.28;5092439;28;20325;-75
2023/07/19 08:09:42;;;;;;;5.28;1.88;;;;;;;-143.49;100.00;65027.28;5074798;28;20428;-75
2023/07/19 08:12:08;;;;;;;5.85;1.85;;;;;;;-143.49;100.00;65027.28;5092847;28;20489;-75
2023/07/19 08:14:33;;;;;;;5.35;1.98;;;;;;;-143.49;100.00;65027.28;5092668;28;20032;-76
2023/07/19 08:16:59;;;;;;;6.00;1.85;;;;;;;-143.49;100.00;65027.28;5092526;28;20035;-75
2023/07/19 08:19:24;;;;;;;6.30;1.80;;;;;;;-143.49;100.00;65027.28;5092475;28;20468;-76
2023/07/19 08:21:49;;;;;;;6.07;2.00;;;;;;;-143.49;100.00;65027.28;5095760;28;20535;-74
2023/07/19 08:24:15;;;;;;;4.75;2.10;;;;;;;-143.49;100.00;65027.28;5078000;28;20519;-75
2023/07/19 08:26:40;;;;;;;5.63;2.05;;;;;;;-143.49;100.00;65027.28;5096276;28;20020;-75
2023/07/19 08:29:05;;;;;;;7.25;2.33;;;;;;;-143.49;100.00;65027.28;5077988;28;20028;-76
2023/07/19 08:31:31;;;;;;;6.13;2.20;;;;;;;-143.49;100.00;65027.28;5096045;28;20085;-75
2023/07/19 08:33:57;;;;;;;5.75;2.30;;;;;;;-143.49;100.00;65027.28;5096033;28;20032;-75
2023/07/19 08:36:22;;;;;;;6.50;2.30;;;;;;;-143.49;100.00;65027.28;5077691;28;20023;-75
2023/07/19 08:38:48;;;;;;;3.63;2.00;;;;;;;-143.49;100.00;65027.28;5095772;28;20031;-75
2023/07/19 08:41:18;;;;;;;8.18;2.40;;;;;;;-143.49;100.00;65027.28;5095891;28;20024;-76
2023/07/19 08:43:44;;;;;;;8.80;2.63;;;;;;;-143.49;100.00;65027.28;5095900;28;20031;-74
2023/07/19 08:46:14;;;;;;;6.82;2.63;;;;;;;-143.49;100.00;65027.28;5095676;28;20024;-73
2023/07/19 08:48:44;;;;;;;7.47;2.50;;;;;;;-143.49;100.00;65027.28;5095684;28;20031;-75
2023/07/19 08:51:12;;;;;;;7.50;2.40;;;;;;;-143.49;100.00;65027.28;5095624;28;20028;-74
2023/07/19 08:53:37;;;;;;;6.85;2.20;;;;;;;-143.49;100.00;65027.28;5095689;28;20494;-74
2023/07/19 08:56:03;;;;;;;7.13;2.30;;;;;;;-143.49;100.00;65027.28;5095465;28;20024;-74
2023/07/19 08:58:29;;;;;;;6.55;2.15;;;;;;;-143.49;100.00;65027.28;5095283;28;20035;-73
2023/07/19 09:00:54;;;;;;;5.15;1.90;;;;;;;-143.49;100.00;65027.28;5095865;28;20086;-73
2023/07/19 09:03:20;;;;;;;8.02;1.95;;;;;;;-143.49;100.00;65027.28;5095392;28;20042;-73
2023/07/19 09:05:46;;;;;;;5.72;2.28;;;;;;;-143.49;100.00;65027.28;5095982;28;20027;-74
2023/07/19 09:08:12;;;;;;;6.65;2.15;;;;;;;-143.49;100.00;65027.28;5095505;28;20052;-74
2023/07/19 09:10:37;;;;;;;5.53;2.20;;;;;;;-143.49;100.00;65027.28;5095186;28;20102;-74
2023/07/19 09:13:05;;;;;;;7.80;2.50;;;;;;;-143.49;100.00;65027.28;5095126;28;20112;-73
2023/07/19 09:15:32;;;;;;;7.05;2.20;;;;;;;-143.49;100.00;65027.28;5094989;28;20047;-74
2023/07/19 09:17:58;;;;;;;7.28;1.92;;;;;;;-143.49;100.00;65027.28;5095127;28;20027;-74
2023/07/19 09:20:27;;;;;;;5.32;1.98;;;;;;;-143.49;100.00;65027.28;5076808;28;20421;-74
2023/07/19 09:22:52;;;;;;;8.38;2.05;;;;;;;-143.49;100.00;65027.28;5095081;28;20024;-74
2023/07/19 09:25:18;;;;;;;8.13;2.17;;;;;;;-143.49;100.00;65027.28;5095027;28;20031;-73
2023/07/19 09:27:43;;;;;;;5.25;2.22;;;;;;;-143.49;100.00;65027.28;5095015;28;20020;-73
2023/07/19 09:30:11;;;;;;;4.43;2.00;;;;;;;-143.49;100.00;65027.28;5095105;28;20020;-73
2023/07/19 09:32:37;;;;;;;6.68;2.10;;;;;;;-143.49;100.00;65027.28;5093075;28;20028;-73
2023/07/19 09:35:04;;;;;;;11.23;2.40;;;;;;;-143.49;100.00;65027.28;5094695;28;20107;-74
2023/07/19 09:37:30;;;;;;;7.40;2.10;;;;;;;-143.49;100.00;65027.28;5094721;28;20027;-73
2023/07/19 09:39:56;;;;;;;7.03;2.10;;;;;;;-143.49;100.00;65027.28;5094897;28;20020;-74
2023/07/19 09:42:24;;;;;;;8.35;2.33;;;;;;;-143.49;100.00;65027.28;5094998;28;20073;-74
2023/07/19 09:44:50;;;;;;;6.70;2.20;;;;;;;-143.49;100.00;65027.28;5095870;28;20027;-73
2023/07/19 09:47:16;;;;;;;6.28;2.28;;;;;;;-143.49;100.00;65027.28;5095348;28;20020;-74
2023/07/19 09:49:42;;;;;;;10.32;2.42;;;;;;;-143.49;100.00;65027.28;5094402;28;20463;-73
2023/07/19 09:52:12;;;;;;;5.72;2.15;;;;;;;-143.49;100.00;65027.28;5076704;28;20020;-73
2023/07/19 09:54:38;;;;;;;5.57;2.33;;;;;;;-143.49;100.00;65027.28;5076284;28;20542;-73
2023/07/19 09:57:04;;;;;;;7.53;2.25;;;;;;;-143.49;100.00;65027.28;5094241;28;20133;-73
2023/07/19 09:59:43;;;;;;;5.63;2.25;;;;;;;-143.49;100.00;65027.28;5094431;28;20031;-73
2023/07/19 10:02:10;;;;;;;10.30;2.35;;;;;;;-143.49;100.00;65027.28;5094449;28;20542;-73
2023/07/19 10:04:38;;;;;;;6.13;2.20;;;;;;;-143.49;100.00;65027.28;5094206;28;20102;-74
2023/07/19 10:07:20;;;;;;;5.47;2.00;;;;;;;-143.49;100.00;65027.28;5075944;28;20059;-73
2023/07/19 10:09:50;;;;;;;7.40;2.58;;;;;;;-143.49;100.00;65027.28;5094138;28;20044;-73
2023/07/19 10:12:15;;;;;;;9.63;2.42;;;;;;;-143.49;100.00;65027.28;5094186;28;20069;-73
2023/07/19 10:15:00;;;;;;;4.50;2.40;;;;;;;-143.49;100.00;65027.28;5075771;28;20028;-73
2023/07/19 10:17:27;;;;;;;7.43;2.67;;;;;;;-143.49;100.00;65027.28;5093878;28;20356;-74
2023/07/19 10:20:14;;;;;;;5.85;2.20;;;;;;;-143.49;100.00;65027.28;5093958;28;20039;-74
2023/07/19 10:22:53;;;;;;;7.78;2.50;;;;;;;-143.49;100.00;65027.28;5094089;28;20027;-74
2023/07/19 10:25:27;;;;;;;7.20;2.60;;;;;;;-143.49;100.00;65027.28;5094134;28;20024;-74
2023/07/19 10:27:59;;;;;;;9.90;2.60;;;;;;;-143.49;100.00;65027.28;5095126;28;20038;-73
2023/07/19 10:30:43;;;;;;;9.10;2.60;;;;;;;-143.49;100.00;65027.28;5076473;28;20085;-75
2023/07/19 10:33:13;;;;;;;6.10;2.40;;;;;;;-143.49;100.00;65027.28;5093855;28;20028;-74
2023/07/19 10:35:39;;;;;;;6.60;2.20;;;;;;;-143.49;100.00;65027.28;5093871;28;20478;-72
2023/07/19 10:38:05;;;;;;;8.80;2.22;;;;;;;-143.49;100.00;65027.28;5093947;28;20133;-72
2023/07/19 10:40:30;;;;;;;6.30;2.25;;;;;;;-143.49;100.00;65027.28;5094046;28;20099;-73
2023/07/19 10:42:55;;;;;;;6.18;2.17;;;;;;;-143.49;100.00;65027.28;5093795;28;20024;-74
2023/07/19 10:45:25;;;;;;;7.65;2.35;;;;;;;-143.49;100.00;65027.28;5093759;28;20035;-75
2023/07/19 10:47:51;;;;;;;10.68;2.70;;;;;;;-143.49;100.00;65027.28;5093765;28;20020;-73
2023/07/19 10:50:17;;;;;;;9.80;2.50;;;;;;;-143.49;100.00;65027.28;5093615;28;20032;-73
2023/07/19 10:52:46;;;;;;;8.13;2.53;;;;;;;-143.49;100.00;65027.28;5092998;28;20067;-73
2023/07/19 10:55:13;;;;;;;7.80;2.40;;;;;;;-143.49;100.00;65027.28;5075530;28;20016;-73
2023/07/19 10:57:38;;;;;;;5.75;2.22;;;;;;;-143.49;100.00;65027.28;5093768;28;20031;-74
2023/07/19 11:00:12;;;;;;;8.25;2.67;;;;;;;-143.49;100.00;65027.28;5075348;28;20402;-73
2023/07/19 11:02:39;;;;;;;7.15;2.58;;;;;;;-143.49;100.00;65027.28;5093334;28;20028;-73
2023/07/19 11:05:06;;;;;;;8.52;2.60;;;;;;;-143.49;100.00;65027.28;5075373;28;20020;-73